Aviation Digital Data Service (ADDS)

Output produced by METARs form (1319 UTC 26 March 2019)
found at http://www.aviationweather.gov/metar/data/
 
TAF MHSC 261300Z 2613/2719 34009KT 9000 HZ FEW060 QNH3002INS 
     BECMG 2616/2617 35010G15KT 8000 HZ SCT060 QNH2995INS 
     TEMPO 2620/2624 36015G22KT 4800 HZ 
     BECMG 2704/2705 35009KT 9000 HZ FEW060 QNH3005INS 
     BECMG 2716/2717 36012G18KT 9000 HZ FEW060 QNH3004INS TX33/2619Z TN17/2710Z
       
TAF MHLC 261025Z 2612/2712 00000KT 9999 SCT026 TX29/2621Z TN21/2712Z 
     BECMG 2615/2617 36008KT 
     BECMG 2701/2703 VRB02KT SCT026TCU SCT080
       
TAF MHLM 261025Z 2612/2712 VRB02KT 9999 FEW028 TX30/2621Z TN21/2712Z 
     BECMG 2616/2618 01012KT 
     BECMG 2702/2704 00000KT
       
TAF MHRO 261025Z 2612/2712 VRB02KT 9999 FEW022 TX29/2621Z TN23/2712Z 
     BECMG 2612/2614 VRB02KT 
     BECMG 2618/2620 35006KT 
     BECMG 2701/2703 05008KT SCT022CB SCT080
       
TAF MHTG 261025Z 2612/2712 01005KT 4000 BKN028 TX28/2621Z TN18/2712Z 
     BECMG 2615/2616 8000 NSW SCT030 
     BECMG 2615/2617 01015KT 9999 BNK034 
     BECMG 2700/2702 36005KT FEW030